Time;durP1;ratioP1;P1;durP2;ratioP2;P2;SDS_P1;SDS_P2;PMS_P1;PMS_P2;Temp;Humidity;BMP_temperature;BMP_pressure;BME280_temperature;BME280_humidity;BME280_pressure;Samples;Min_cycle;Max_cycle;Signal;HPM_P1;HPM_P2
2022/04/29 00:01:31;;;;;;;6.53;4.82;;;18.30;57.10;;;;;;4946856;28;20031;-88
2022/04/29 00:03:56;;;;;;;9.07;5.38;;;18.30;56.90;;;;;;4957750;28;20489;-86
2022/04/29 00:06:22;;;;;;;7.85;5.40;;;18.30;57.10;;;;;;4958088;28;20023;-88
2022/04/29 00:08:48;;;;;;;12.93;5.68;;;18.30;57.00;;;;;;4976510;28;20078;-90
2022/04/29 00:11:14;;;;;;;8.45;5.57;;;18.20;57.00;;;;;;4956693;28;20050;-89
2022/04/29 00:13:40;;;;;;;15.27;5.43;;;18.10;57.50;;;;;;4958840;28;20385;-89
2022/04/29 00:16:06;;;;;;;9.02;5.40;;;18.30;57.20;;;;;;4973231;28;20441;-85
2022/04/29 00:18:32;;;;;;;7.25;5.20;;;18.30;56.80;;;;;;4958216;28;20489;-88
2022/04/29 00:20:58;;;;;;;8.50;5.63;;;17.90;57.30;;;;;;4957252;28;20069;-87
2022/04/29 00:23:24;;;;;;;9.23;5.38;;;17.60;58.10;;;;;;4957737;28;20058;-90
2022/04/29 00:25:50;;;;;;;9.30;5.38;;;17.70;57.80;;;;;;4957788;28;20033;-88
2022/04/29 00:28:16;;;;;;;8.43;5.35;;;17.90;57.50;;;;;;4958434;28;20113;-89
2022/04/29 00:30:42;;;;;;;9.25;5.97;;;17.90;57.40;;;;;;4957122;28;20085;-88
2022/04/29 00:33:08;;;;;;;8.82;5.15;;;17.90;57.30;;;;;;4957187;28;20069;-89
2022/04/29 00:35:41;;;;;;;8.70;5.25;;;17.90;57.20;;;;;;4957421;28;20073;-88
2022/04/29 00:38:06;;;;;;;10.35;5.53;;;18.00;57.30;;;;;;4956394;28;20033;-90
2022/04/29 00:40:32;;;;;;;7.13;5.20;;;18.10;57.00;;;;;;4957363;28;20034;-89
2022/04/29 00:42:59;;;;;;;9.65;5.18;;;18.00;56.90;;;;;;4957062;28;20026;-92
2022/04/29 00:45:25;;;;;;;7.63;5.20;;;18.10;56.60;;;;;;4942007;28;20035;-88
2022/04/29 00:47:52;;;;;;;10.05;5.47;;;18.30;56.10;;;;;;4957809;28;20027;-91
2022/04/29 00:50:27;;;;;;;6.78;4.95;;;18.40;55.90;;;;;;4958614;28;20114;-87
2022/04/29 00:52:54;;;;;;;7.25;4.90;;;18.40;55.60;;;;;;4957727;28;20034;-91
2022/04/29 00:55:22;;;;;;;6.65;4.70;;;18.20;55.50;;;;;;4958134;28;20057;-86
2022/04/29 00:58:12;;;;;;;7.07;4.88;;;18.20;55.20;;;;;;4974203;28;20075;-82
2022/04/29 01:00:39;;;;;;;;;;;18.20;55.20;;;;;;4957456;28;20038;-85
2022/04/29 01:03:05;;;;;;;6.78;4.85;;;18.10;55.10;;;;;;4957102;28;19986;-84
2022/04/29 01:05:34;;;;;;;8.68;5.18;;;17.90;55.80;;;;;;4957510;28;20035;-89
2022/04/29 01:08:00;;;;;;;6.75;4.65;;;18.00;56.00;;;;;;4956437;28;20430;-88
2022/04/29 01:10:25;;;;;;;7.25;4.93;;;17.90;56.20;;;;;;4975444;28;20118;-87
2022/04/29 01:12:57;;;;;;;7.93;5.07;;;17.50;56.80;;;;;;4955936;28;20066;-88
2022/04/29 01:15:23;;;;;;;7.68;5.25;;;17.50;56.80;;;;;;4975002;28;20101;-86
2022/04/29 01:17:51;;;;;;;8.15;5.28;;;17.00;57.90;;;;;;4955230;28;20426;-87
2022/04/29 01:20:23;;;;;;;10.40;5.15;;;17.30;57.80;;;;;;4957671;28;20067;-87
2022/04/29 01:22:49;;;;;;;7.05;4.93;;;17.30;57.80;;;;;;4974020;28;20026;-88
2022/04/29 01:25:14;;;;;;;10.65;5.10;;;17.30;57.60;;;;;;4956104;28;20039;-88
2022/04/29 01:27:40;;;;;;;6.60;5.00;;;17.20;58.50;;;;;;4957494;28;20059;-92
2022/04/29 01:30:08;;;;;;;6.32;4.80;;;17.50;57.80;;;;;;4975160;28;20558;-85
2022/04/29 01:32:35;;;;;;;6.10;4.90;;;17.60;57.10;;;;;;4957198;28;20358;-82
2022/04/29 01:35:02;;;;;;;7.18;4.80;;;17.60;57.40;;;;;;4956722;28;20049;-87
2022/04/29 01:37:28;;;;;;;9.70;5.45;;;17.60;57.00;;;;;;4973982;28;20056;-87
2022/04/29 01:39:54;;;;;;;6.97;5.18;;;17.80;56.50;;;;;;4958054;28;20038;-94
2022/04/29 01:42:20;;;;;;;7.90;5.38;;;18.00;56.30;;;;;;4974857;28;20030;-91
2022/04/29 01:44:45;;;;;;;8.32;4.95;;;18.00;56.10;;;;;;4977198;28;20031;-92
2022/04/29 01:47:12;;;;;;;7.53;5.47;;;18.00;56.20;;;;;;4961306;28;20027;-82
2022/04/29 01:49:38;;;;;;;7.55;5.55;;;18.20;55.70;;;;;;4960595;28;20029;-93
2022/04/29 01:52:04;;;;;;;8.52;5.25;;;18.00;56.10;;;;;;4977746;28;20031;-91
2022/04/29 01:54:30;;;;;;;6.50;5.00;;;18.00;56.00;;;;;;4960863;28;20042;-89
2022/04/29 01:56:56;;;;;;;7.07;5.18;;;17.90;56.00;;;;;;4958565;28;20108;-79
2022/04/29 01:59:22;;;;;;;8.02;4.80;;;17.90;55.30;;;;;;4977647;28;20043;-87
2022/04/29 02:01:48;;;;;;;7.72;4.80;;;17.90;55.50;;;;;;4978929;28;20031;-89
2022/04/29 02:04:15;;;;;;;6.60;4.70;;;18.10;54.90;;;;;;4959684;28;20090;-85
2022/04/29 02:06:41;;;;;;;7.07;5.22;;;18.10;55.50;;;;;;4961752;28;20030;-86
2022/04/29 02:09:07;;;;;;;7.22;5.10;;;18.10;55.70;;;;;;4961681;28;20062;-90
2022/04/29 02:11:34;;;;;;;7.85;5.85;;;18.00;55.50;;;;;;4960810;28;20042;-90
2022/04/29 02:14:01;;;;;;;10.13;5.38;;;17.90;56.00;;;;;;4960430;28;20027;-88
2022/04/29 02:16:30;;;;;;;8.13;5.40;;;17.80;56.20;;;;;;4959585;28;20022;-92
2022/04/29 02:18:55;;;;;;;6.78;5.28;;;17.80;56.20;;;;;;4975576;28;20042;-88
2022/04/29 02:21:21;;;;;;;8.50;5.57;;;17.80;56.60;;;;;;4976557;28;20034;-87
2022/04/29 02:23:47;;;;;;;8.32;5.30;;;17.70;56.80;;;;;;4959665;28;20041;-90
2022/04/29 02:26:13;;;;;;;6.95;5.47;;;17.60;56.40;;;;;;4959600;28;20031;-84
2022/04/29 02:28:39;;;;;;;7.80;5.00;;;17.00;58.00;;;;;;4959191;28;20033;-86
2022/04/29 02:31:05;;;;;;;7.85;5.32;;;17.10;57.70;;;;;;4958931;28;20389;-89
2022/04/29 02:33:31;;;;;;;7.65;5.30;;;17.20;57.40;;;;;;4962421;28;20027;-81
2022/04/29 02:35:57;;;;;;;9.50;5.55;;;17.00;57.80;;;;;;4959463;28;20525;-91
2022/04/29 02:38:22;;;;;;;8.85;5.10;;;17.10;57.50;;;;;;4958748;28;20026;-86
2022/04/29 02:40:51;;;;;;;8.63;5.00;;;17.30;56.80;;;;;;4958046;28;20155;-74
2022/04/29 02:43:18;;;;;;;13.73;5.25;;;17.30;56.50;;;;;;4977453;28;20023;-86
2022/04/29 02:45:44;;;;;;;8.40;5.60;;;17.10;57.00;;;;;;4976265;28;20525;-84
2022/04/29 02:48:10;;;;;;;6.47;5.00;;;17.00;57.30;;;;;;4959517;28;20089;-92
2022/04/29 02:50:36;;;;;;;7.75;5.50;;;16.90;57.90;;;;;;4976490;28;20070;-90
2022/04/29 02:53:02;;;;;;;6.70;5.30;;;17.00;57.50;;;;;;4953331;28;20030;-86
2022/04/29 02:55:28;;;;;;;6.97;5.60;;;17.00;57.60;;;;;;4974769;28;20030;-84
2022/04/29 02:57:54;;;;;;;9.48;5.70;;;17.00;57.50;;;;;;4957876;28;20027;-85
2022/04/29 03:00:19;;;;;;;8.35;5.88;;;16.90;57.80;;;;;;4958732;28;20050;-87
2022/04/29 03:02:45;;;;;;;9.32;5.38;;;16.80;58.00;;;;;;4958793;28;20434;-84
2022/04/29 03:05:11;;;;;;;10.07;5.65;;;16.60;58.40;;;;;;4957825;28;20031;-85
2022/04/29 03:07:36;;;;;;;8.02;5.93;;;16.70;58.30;;;;;;4973938;28;20019;-87
2022/04/29 03:10:03;;;;;;;7.10;5.32;;;16.60;58.70;;;;;;4958750;28;20034;-84
2022/04/29 03:12:28;;;;;;;7.47;5.50;;;16.60;58.70;;;;;;4955583;28;20062;-87
2022/04/29 03:15:15;;;;;;;8.35;5.80;;;16.60;58.90;;;;;;4940151;29;20058;-89
2022/04/29 03:20:24;;;;;;;7.40;5.50;;;16.60;58.60;;;;;;4962084;28;20042;-83
2022/04/29 03:22:51;;;;;;;8.43;5.63;;;16.60;58.20;;;;;;4957459;28;20042;-88
2022/04/29 03:25:16;;;;;;;8.85;5.70;;;16.30;58.70;;;;;;4958327;28;20026;-86
2022/04/29 03:27:42;;;;;;;7.78;5.80;;;16.00;59.30;;;;;;4975202;28;20089;-85
2022/04/29 03:30:09;;;;;;;7.70;5.53;;;16.00;59.70;;;;;;4976448;28;20382;-85
2022/04/29 03:32:34;;;;;;;9.88;5.57;;;16.20;59.30;;;;;;4957339;28;20174;-84
2022/04/29 03:35:00;;;;;;;7.95;5.50;;;16.00;59.40;;;;;;4957033;28;20137;-85
2022/04/29 03:37:26;;;;;;;8.20;5.60;;;16.30;59.00;;;;;;4957554;28;20031;-87
2022/04/29 03:39:53;;;;;;;7.65;5.88;;;16.40;58.50;;;;;;4957880;28;20051;-85
2022/04/29 03:42:19;;;;;;;9.38;6.00;;;16.40;58.60;;;;;;4957867;28;20378;-89
2022/04/29 03:44:45;;;;;;;8.15;6.25;;;16.60;58.30;;;;;;4957902;28;20030;-85
2022/04/29 03:47:11;;;;;;;8.90;6.30;;;16.70;58.20;;;;;;4955072;28;20084;-82
2022/04/29 03:49:37;;;;;;;7.95;6.30;;;16.70;58.30;;;;;;4951981;29;20031;-85
2022/04/29 03:52:04;;;;;;;8.05;6.32;;;16.50;58.60;;;;;;4948588;28;20026;-90
2022/04/29 03:54:30;;;;;;;11.43;6.22;;;16.40;58.90;;;;;;4958617;28;20034;-84
2022/04/29 03:56:56;;;;;;;9.45;6.05;;;16.30;58.90;;;;;;4958568;28;20026;-89
2022/04/29 03:59:22;;;;;;;15.27;7.00;;;16.10;59.40;;;;;;4958428;28;20122;-84
2022/04/29 04:01:48;;;;;;;9.07;6.60;;;16.00;60.10;;;;;;4958265;28;20031;-84
2022/04/29 04:04:14;;;;;;;10.25;6.45;;;15.80;60.50;;;;;;4958308;28;20029;-82
2022/04/29 04:06:52;;;;;;;10.18;6.00;;;16.20;60.10;;;;;;4957184;28;20030;-81
2022/04/29 04:09:21;;;;;;;8.35;6.15;;;16.50;59.50;;;;;;4953318;28;20027;-83
2022/04/29 04:11:48;;;;;;;9.00;5.90;;;16.70;58.90;;;;;;4957549;28;20501;-85
2022/04/29 04:14:15;;;;;;;8.55;5.97;;;16.90;58.40;;;;;;4957618;28;20019;-87
2022/04/29 04:16:40;;;;;;;10.70;6.55;;;17.10;57.70;;;;;;4956291;28;20030;-86
2022/04/29 04:19:06;;;;;;;9.35;6.35;;;17.30;57.50;;;;;;4973877;28;20054;-83
2022/04/29 04:21:32;;;;;;;9.30;6.40;;;17.20;57.30;;;;;;4956311;28;20100;-84
2022/04/29 04:23:58;;;;;;;9.25;6.07;;;16.80;58.00;;;;;;4956724;28;20443;-86
2022/04/29 04:26:24;;;;;;;19.13;11.65;;;16.60;58.70;;;;;;4956556;28;20026;-89
2022/04/29 04:28:49;;;;;;;20.67;13.00;;;16.60;58.60;;;;;;4957029;28;20073;-85
2022/04/29 04:31:15;;;;;;;36.25;23.63;;;16.50;58.60;;;;;;4956617;28;20030;-87
2022/04/29 04:33:41;;;;;;;35.67;25.85;;;16.30;59.40;;;;;;4956539;28;20023;-85
2022/04/29 04:36:09;;;;;;;20.60;14.32;;;16.30;59.70;;;;;;4956917;28;20042;-83
2022/04/29 04:38:37;;;;;;;9.55;7.75;;;16.60;59.20;;;;;;4956282;28;20038;-87
2022/04/29 04:41:03;;;;;;;9.07;7.30;;;16.60;59.20;;;;;;4973816;28;20085;-90
2022/04/29 04:43:29;;;;;;;10.57;6.60;;;16.70;59.50;;;;;;4954483;28;20023;-89
2022/04/29 04:45:55;;;;;;;9.95;7.25;;;16.70;59.10;;;;;;4951668;28;20089;-86
2022/04/29 04:48:21;;;;;;;10.57;7.30;;;16.80;59.10;;;;;;4958003;28;20031;-81
2022/04/29 04:50:47;;;;;;;9.43;6.50;;;17.00;58.00;;;;;;4957854;28;20390;-85
2022/04/29 04:53:13;;;;;;;10.93;7.45;;;16.90;58.40;;;;;;4975107;28;20382;-84
2022/04/29 04:55:40;;;;;;;9.48;7.25;;;17.00;58.40;;;;;;4957987;28;20030;-84
2022/04/29 04:58:08;;;;;;;9.30;6.38;;;17.20;58.20;;;;;;4975036;28;20109;-87
2022/04/29 05:00:33;;;;;;;8.90;6.60;;;17.30;57.80;;;;;;4957742;28;20045;-86
2022/04/29 05:02:59;;;;;;;12.63;7.57;;;17.40;57.50;;;;;;4974905;28;20019;-86
2022/04/29 05:05:25;;;;;;;9.05;6.65;;;17.40;57.60;;;;;;4957621;28;20390;-88
2022/04/29 05:07:51;;;;;;;10.65;6.70;;;17.60;57.30;;;;;;4957782;28;20074;-86
2022/04/29 05:10:18;;;;;;;7.75;6.28;;;17.50;56.90;;;;;;4975667;28;20027;-80
2022/04/29 05:12:46;;;;;;;10.20;6.68;;;17.50;57.10;;;;;;4958479;28;20027;-86
2022/04/29 05:15:13;;;;;;;7.57;6.00;;;17.60;57.00;;;;;;4958128;28;20121;-85
2022/04/29 05:17:40;;;;;;;7.90;5.70;;;17.20;57.40;;;;;;4975106;28;20027;-89
2022/04/29 05:20:11;;;;;;;9.52;6.25;;;17.30;57.40;;;;;;4978540;28;20150;-84
2022/04/29 05:22:37;;;;;;;8.18;5.95;;;17.20;57.70;;;;;;4957221;28;20042;-84
2022/04/29 05:25:04;;;;;;;8.57;5.63;;;17.40;57.40;;;;;;4955554;28;20023;-79
2022/04/29 05:27:30;;;;;;;8.45;5.88;;;17.50;57.40;;;;;;4941259;28;20065;-87
2022/04/29 05:29:57;;;;;;;8.93;5.70;;;17.70;57.00;;;;;;4950066;28;20030;-81
2022/04/29 05:32:24;;;;;;;7.82;5.97;;;18.00;56.30;;;;;;4959155;28;20026;-85
2022/04/29 05:34:50;;;;;;;7.78;5.32;;;18.00;56.10;;;;;;4958284;28;20185;-86
2022/04/29 05:37:17;;;;;;;10.73;6.15;;;18.20;55.90;;;;;;4958429;28;20030;-85
2022/04/29 05:42:28;;;;;;;9.57;5.70;;;18.20;55.80;;;;;;4958342;29;20170;-85
2022/04/29 05:44:53;;;;;;;8.52;5.72;;;18.20;55.60;;;;;;4956945;29;20031;-85
2022/04/29 05:47:19;;;;;;;8.88;6.05;;;18.20;55.70;;;;;;4956919;29;20034;-82
2022/04/29 05:49:45;;;;;;;8.23;5.95;;;18.30;54.90;;;;;;4954057;28;20031;-84
2022/04/29 05:52:11;;;;;;;7.95;5.75;;;18.40;55.40;;;;;;4941467;29;20106;-87
2022/04/29 05:54:37;;;;;;;7.45;5.40;;;18.00;56.50;;;;;;4941554;29;20047;-91
2022/04/29 05:57:04;;;;;;;9.25;5.60;;;18.20;56.10;;;;;;4941428;29;20493;-88
2022/04/29 05:59:30;;;;;;;8.02;5.63;;;18.50;56.10;;;;;;4940343;29;20047;-84
2022/04/29 06:01:57;;;;;;;8.77;5.60;;;18.90;54.30;;;;;;4941572;29;20027;-92
2022/04/29 06:04:22;;;;;;;8.13;5.50;;;18.90;54.10;;;;;;4946977;28;20019;-85
2022/04/29 06:06:48;;;;;;;7.47;5.25;;;18.90;53.70;;;;;;4960429;28;20026;-88
2022/04/29 06:09:14;;;;;;;7.22;5.38;;;19.30;53.60;;;;;;4960055;28;20386;-83
2022/04/29 06:11:40;;;;;;;9.60;5.25;;;19.50;53.40;;;;;;4949508;29;20484;-86
2022/04/29 06:14:06;;;;;;;9.30;5.57;;;19.80;52.60;;;;;;4959596;28;20023;-86
2022/04/29 06:16:31;;;;;;;8.02;5.35;;;19.80;52.10;;;;;;4953611;29;20031;-86
2022/04/29 06:18:57;;;;;;;11.60;6.30;;;19.90;52.20;;;;;;4950436;28;20031;-86
2022/04/29 06:21:23;;;;;;;9.25;6.40;;;20.10;52.20;;;;;;4959925;28;20033;-85
2022/04/29 06:23:51;;;;;;;8.85;5.00;;;20.20;51.50;;;;;;4960072;28;20039;-90
2022/04/29 06:26:17;;;;;;;7.85;4.80;;;20.50;51.70;;;;;;4960344;28;20019;-90
2022/04/29 06:28:42;;;;;;;7.30;5.20;;;20.50;51.60;;;;;;4959962;28;20027;-89
2022/04/29 06:31:08;;;;;;;8.73;5.75;;;20.30;51.70;;;;;;4950743;28;20027;-92
2022/04/29 06:33:35;;;;;;;10.65;6.15;;;20.60;51.70;;;;;;4941843;28;20046;-90
2022/04/29 06:36:01;;;;;;;11.07;5.95;;;20.80;51.50;;;;;;4949386;28;20058;-84
2022/04/29 06:38:31;;;;;;;7.63;5.68;;;21.10;51.10;;;;;;4953482;28;20110;-86
2022/04/29 06:40:57;;;;;;;6.83;5.20;;;21.40;50.90;;;;;;4616755;28;10000401;-87
2022/04/29 06:43:23;;;;;;;7.15;5.25;;;21.90;50.50;;;;;;4959870;28;20031;-95
2022/04/29 06:45:49;;;;;;;7.32;5.40;;;22.20;50.70;;;;;;4960115;28;20026;-92
2022/04/29 06:48:15;;;;;;;7.28;5.57;;;22.80;49.40;;;;;;4957663;28;20022;-87
2022/04/29 06:50:41;;;;;;;8.38;5.00;;;23.50;48.00;;;;;;4941965;29;20382;-90
2022/04/29 06:53:07;;;;;;;8.40;5.53;;;23.80;47.40;;;;;;4944085;28;20465;-88
2022/04/29 06:55:37;;;;;;;8.00;5.50;;;24.10;46.90;;;;;;4959302;28;20037;-85
2022/04/29 06:58:03;;;;;;;9.38;5.43;;;24.10;46.80;;;;;;4952287;28;20028;-86
2022/04/29 07:00:29;;;;;;;8.05;5.10;;;24.10;46.50;;;;;;4940608;29;20054;-88
2022/04/29 07:03:02;;;;;;;6.35;4.75;;;24.20;46.90;;;;;;4952266;28;20470;-86
2022/04/29 07:05:31;;;;;;;7.78;4.45;;;23.70;47.10;;;;;;4958170;28;20035;-87
2022/04/29 07:07:58;;;;;;;8.88;5.25;;;22.30;47.50;;;;;;4971412;28;20019;-87
2022/04/29 07:10:24;;;;;;;7.20;4.45;;;21.40;48.10;;;;;;4944424;29;20478;-89
2022/04/29 07:12:50;;;;;;;6.68;4.40;;;21.10;48.20;;;;;;4949491;29;20102;-89
2022/04/29 07:15:23;;;;;;;6.82;4.32;;;22.10;47.50;;;;;;4941201;28;20031;-86
2022/04/29 07:17:49;;;;;;;6.88;4.47;;;22.90;45.10;;;;;;4940423;29;20551;-88
2022/04/29 07:20:16;;;;;;;8.02;4.47;;;22.80;42.60;;;;;;4940132;28;20039;-91
2022/04/29 07:22:42;;;;;;;6.78;4.25;;;23.00;44.40;;;;;;4947431;28;20027;-89
2022/04/29 07:25:12;;;;;;;7.43;4.60;;;23.70;45.20;;;;;;4955602;28;20031;-89
2022/04/29 07:27:39;;;;;;;6.00;4.20;;;24.40;42.40;;;;;;4940217;29;20390;-90
2022/04/29 07:30:07;;;;;;;8.10;4.10;;;25.10;43.80;;;;;;4954722;28;20100;-88
2022/04/29 07:32:33;;;;;;;6.72;3.95;;;25.80;43.10;;;;;;4958723;28;20463;-86
2022/04/29 07:43:13;;;;;;;11.98;8.02;;;26.50;41.30;;;;;;4955920;28;20035;-82
2022/04/29 07:45:40;;;;;;;5.65;4.28;;;26.40;41.50;;;;;;4938790;29;20035;-82
2022/04/29 07:48:06;;;;;;;7.28;3.90;;;25.70;39.20;;;;;;4955645;29;20398;-83
2022/04/29 07:50:33;;;;;;;7.38;4.80;;;24.20;41.90;;;;;;4937898;29;20035;-82
2022/04/29 07:53:00;;;;;;;7.45;4.78;;;23.10;42.20;;;;;;4955174;29;20466;-80
2022/04/29 07:55:26;;;;;;;6.90;5.00;;;23.40;41.40;;;;;;4938309;29;20031;-83
2022/04/29 07:57:52;;;;;;;7.15;4.30;;;23.80;43.30;;;;;;4938019;29;20030;-81
2022/04/29 08:00:18;;;;;;;6.00;4.10;;;23.90;43.30;;;;;;4954614;29;20035;-82
2022/04/29 08:02:44;;;;;;;8.57;4.07;;;24.20;41.00;;;;;;4955595;29;20086;-84
2022/04/29 08:05:10;;;;;;;5.93;4.20;;;24.20;40.70;;;;;;4938618;29;20494;-84
2022/04/29 08:07:36;;;;;;;5.72;3.80;;;24.50;42.40;;;;;;4938080;29;20059;-80
2022/04/29 08:10:03;;;;;;;12.32;5.03;;;24.80;40.50;;;;;;4938167;29;20031;-79
2022/04/29 08:12:28;;;;;;;8.13;3.97;;;24.00;39.40;;;;;;4955471;29;20031;-84
2022/04/29 08:14:54;;;;;;;7.20;4.03;;;23.60;43.40;;;;;;4938717;29;20031;-87
2022/04/29 08:17:21;;;;;;;5.15;3.60;;;24.00;41.30;;;;;;4938821;29;20024;-84
2022/04/29 08:19:50;;;;;;;5.15;3.65;;;24.50;42.40;;;;;;4938259;29;20129;-81
2022/04/29 08:22:17;;;;;;;6.53;3.88;;;24.70;41.50;;;;;;4938697;29;20055;-81
2022/04/29 08:24:44;;;;;;;8.02;4.15;;;25.10;40.70;;;;;;4955832;29;20043;-82
2022/04/29 08:27:10;;;;;;;8.45;4.00;;;24.60;41.20;;;;;;4938469;29;20493;-84
2022/04/29 08:29:39;;;;;;;5.70;3.80;;;24.40;39.90;;;;;;4938253;29;20034;-81
2022/04/29 08:32:06;;;;;;;5.53;3.92;;;24.30;40.70;;;;;;4955351;29;20031;-82
2022/04/29 08:34:33;;;;;;;5.80;3.58;;;24.90;42.20;;;;;;4955517;28;20019;-83
2022/04/29 08:37:03;;;;;;;6.78;3.50;;;25.50;41.50;;;;;;4958187;28;20375;-84
2022/04/29 08:39:30;;;;;;;10.00;3.80;;;25.40;40.60;;;;;;4282987;28;10000461;-83
2022/04/29 08:42:01;;;;;;;7.18;3.70;;;25.50;39.60;;;;;;4972944;28;20027;-81
2022/04/29 08:44:30;;;;;;;6.60;4.30;;;24.40;37.50;;;;;;4956683;28;20039;-84
2022/04/29 08:46:57;;;;;;;6.55;3.58;;;23.60;40.10;;;;;;4957617;28;20034;-79
2022/04/29 08:49:25;;;;;;;6.72;4.20;;;24.20;41.10;;;;;;4958075;28;20401;-78
2022/04/29 08:51:51;;;;;;;6.28;3.80;;;23.80;39.80;;;;;;4957497;28;20050;-79
2022/04/29 08:59:57;;;;;;;5.72;3.67;;;24.20;40.20;;;;;;4975243;28;20086;-88
2022/04/29 09:02:22;;;;;;;6.15;3.80;;;24.50;41.70;;;;;;4974052;28;20022;-79
2022/04/29 09:04:55;;;;;;;4.90;3.55;;;25.30;37.70;;;;;;4974538;28;20030;-86
2022/04/29 09:08:00;;;;;;;6.32;3.45;;;25.50;38.40;;;;;;4957543;28;20031;-80
2022/04/29 09:10:34;;;;;;;4.90;3.30;;;25.30;39.30;;;;;;4957024;28;20030;-82
2022/04/29 09:13:24;;;;;;;5.28;3.40;;;25.20;37.40;;;;;;4957100;28;20031;-85
2022/04/29 09:15:52;;;;;;;6.15;3.67;;;25.50;39.40;;;;;;4945702;28;20039;-80
2022/04/29 09:18:41;;;;;;;5.07;3.30;;;25.90;37.60;;;;;;4956948;28;20030;-82
2022/04/29 09:21:24;;;;;;;6.65;3.65;;;26.10;36.10;;;;;;4957698;28;20030;-80
2022/04/29 09:23:57;;;;;;;4.97;3.53;;;25.50;37.30;;;;;;4957989;28;20545;-83
2022/04/29 09:26:27;;;;;;;5.00;3.42;;;25.10;36.30;;;;;;4957429;28;20054;-82
2022/04/29 09:28:55;;;;;;;6.45;3.50;;;25.30;36.50;;;;;;4956998;28;20035;-83
2022/04/29 09:31:21;;;;;;;6.22;3.80;;;26.10;37.10;;;;;;4957314;28;20030;-85
2022/04/29 09:33:57;;;;;;;7.82;4.85;;;26.70;38.20;;;;;;4957689;28;20034;-88
2022/04/29 09:36:26;;;;;;;7.60;5.20;;;26.30;36.20;;;;;;4957322;28;20454;-86
2022/04/29 09:39:39;;;;;;;6.38;4.43;;;26.10;37.20;;;;;;4957496;28;20114;-85
2022/04/29 09:41:56;;;;;;;6.70;5.30;;;26.10;38.60;;;;;;4964075;28;20039;-83
2022/04/29 09:44:30;;;;;;;5.13;3.67;;;26.50;38.70;;;;;;4957921;28;20417;-89
2022/04/29 09:46:56;;;;;;;5.35;3.50;;;26.60;39.70;;;;;;4957504;28;20117;-84
2022/04/29 09:49:27;;;;;;;5.30;3.95;;;26.30;39.60;;;;;;4974535;28;20027;-84
2022/04/29 09:51:53;;;;;;;6.20;3.75;;;25.90;39.40;;;;;;4957642;28;20040;-85
2022/04/29 09:54:29;;;;;;;5.20;3.70;;;25.70;38.60;;;;;;4957254;28;20101;-81
2022/04/29 09:57:09;;;;;;;7.18;3.63;;;26.00;39.00;;;;;;4974776;28;20053;-86
2022/04/29 09:59:44;;;;;;;5.53;3.40;;;26.70;39.60;;;;;;4957160;28;20047;-85
2022/04/29 10:02:14;;;;;;;5.68;3.90;;;27.10;38.80;;;;;;4957322;28;20030;-86
2022/04/29 10:04:42;;;;;;;5.57;3.72;;;27.10;37.80;;;;;;4957506;28;20401;-78
2022/04/29 10:07:10;;;;;;;5.55;3.90;;;27.20;35.90;;;;;;4960376;28;20031;-83
2022/04/29 10:09:40;;;;;;;7.55;5.20;;;27.40;39.70;;;;;;4960714;28;20023;-84
2022/04/29 10:12:13;;;;;;;7.95;5.90;;;27.70;39.40;;;;;;4960411;28;20038;-87
2022/04/29 10:14:40;;;;;;;5.88;4.00;;;28.50;39.50;;;;;;4960295;28;20072;-82
2022/04/29 10:22:50;;;;;;;5.68;3.22;;;30.40;36.50;;;;;;4977525;28;20488;-82
2022/04/29 10:25:22;;;;;;;7.80;5.35;;;32.00;36.80;;;;;;4977367;28;20109;-84
2022/04/29 10:27:51;;;;;;;7.18;5.13;;;33.90;37.10;;;;;;4960304;28;20496;-86
2022/04/29 10:30:26;;;;;;;5.10;3.40;;;35.70;35.80;;;;;;4977536;28;20034;-88
2022/04/29 10:33:08;;;;;;;5.57;3.38;;;35.80;33.80;;;;;;4960553;28;20034;-86
2022/04/29 10:35:40;;;;;;;5.35;3.47;;;34.60;33.50;;;;;;4960056;28;20051;-86
2022/04/29 10:38:25;;;;;;;5.50;3.40;;;33.30;34.60;;;;;;4977133;28;20026;-87
2022/04/29 10:41:09;;;;;;;4.50;3.38;;;32.50;35.20;;;;;;4959909;28;20031;-88
2022/04/29 10:43:50;;;;;;;6.95;3.58;;;31.70;34.70;;;;;;4960431;28;20038;-88
2022/04/29 10:46:31;;;;;;;7.25;3.80;;;30.90;36.50;;;;;;4976923;28;20382;-87
2022/04/29 10:48:56;;;;;;;9.60;5.30;;;30.40;36.40;;;;;;4959894;28;20058;-85
2022/04/29 10:51:25;;;;;;;5.32;3.63;;;29.80;34.60;;;;;;4977271;28;20103;-84
2022/04/29 10:53:56;;;;;;;6.72;4.03;;;30.20;34.60;;;;;;4960236;28;20493;-81
2022/04/29 10:56:28;;;;;;;5.40;3.60;;;30.80;34.40;;;;;;4959515;28;20046;-82
2022/04/29 10:59:10;;;;;;;4.45;3.50;;;31.00;35.90;;;;;;4959493;28;20022;-82
2022/04/29 11:01:41;;;;;;;6.07;3.53;;;30.50;35.00;;;;;;4959088;28;20441;-81
2022/04/29 11:04:15;;;;;;;4.75;3.25;;;30.30;35.90;;;;;;4976654;28;20386;-84
2022/04/29 11:06:46;;;;;;;5.03;3.20;;;30.00;35.30;;;;;;4959065;28;20053;-91
2022/04/29 11:09:35;;;;;;;5.68;3.67;;;29.80;37.80;;;;;;4959256;28;20174;-82
2022/04/29 11:12:02;;;;;;;5.10;3.85;;;29.10;36.60;;;;;;4959248;28;20035;-84
2022/04/29 11:14:29;;;;;;;4.68;3.40;;;28.50;36.60;;;;;;4976177;28;20023;-80
2022/04/29 11:17:14;;;;;;;6.55;3.33;;;27.90;36.10;;;;;;4958084;28;20125;-83
2022/04/29 11:19:45;;;;;;;5.30;3.47;;;28.00;35.20;;;;;;4958673;28;20034;-79
2022/04/29 11:25:02;;;;;;;6.20;3.45;;;27.70;37.40;;;;;;4976636;28;20037;-85
2022/04/29 11:27:34;;;;;;;5.35;3.63;;;27.90;37.40;;;;;;4959108;28;20114;-87
2022/04/29 11:30:03;;;;;;;6.30;3.58;;;27.90;37.90;;;;;;4959209;28;20394;-86
2022/04/29 11:32:30;;;;;;;7.40;3.80;;;27.90;37.20;;;;;;4958735;28;20030;-86
2022/04/29 11:35:00;;;;;;;5.78;3.80;;;27.80;37.40;;;;;;4959092;28;20054;-82
2022/04/29 11:37:34;;;;;;;5.13;3.40;;;27.90;37.80;;;;;;4958558;28;20023;-85
2022/04/29 11:40:04;;;;;;;10.70;7.57;;;28.30;37.50;;;;;;4958754;28;20409;-84
2022/04/29 11:42:30;;;;;;;5.43;3.90;;;28.40;37.30;;;;;;4958000;28;20194;-85
2022/04/29 11:45:04;;;;;;;7.85;4.03;;;28.40;37.30;;;;;;4958460;28;20023;-83
2022/04/29 11:47:32;;;;;;;7.57;3.30;;;28.50;37.90;;;;;;4975431;28;20051;-81
2022/04/29 11:49:58;;;;;;;7.22;3.65;;;28.20;37.30;;;;;;4975408;28;20034;-85
2022/04/29 11:52:30;;;;;;;6.53;3.88;;;28.40;37.70;;;;;;4975126;28;20034;-81
2022/04/29 11:55:07;;;;;;;7.38;4.57;;;28.00;38.30;;;;;;4957526;28;20026;-80
2022/04/29 11:57:42;;;;;;;8.60;5.22;;;28.10;38.30;;;;;;4975375;28;20030;-81
2022/04/29 12:00:08;;;;;;;14.85;10.13;;;28.50;38.70;;;;;;4974973;28;20069;-78
2022/04/29 12:02:34;;;;;;;8.48;5.30;;;28.90;38.20;;;;;;4958172;28;20078;-85
2022/04/29 12:05:02;;;;;;;5.32;3.78;;;29.10;37.40;;;;;;4975532;28;20031;-79
2022/04/29 12:07:37;;;;;;;4.85;3.40;;;28.90;36.10;;;;;;4958747;28;20437;-82
2022/04/29 12:10:20;;;;;;;5.22;3.40;;;28.70;37.00;;;;;;4958343;28;20477;-86
2022/04/29 12:12:49;;;;;;;5.60;3.78;;;28.50;36.70;;;;;;4958291;28;20430;-83
2022/04/29 12:15:19;;;;;;;6.30;3.85;;;28.40;37.30;;;;;;4958108;28;20039;-82
2022/04/29 12:17:47;;;;;;;4.60;3.40;;;28.50;37.20;;;;;;4974765;28;20082;-81
2022/04/29 12:20:18;;;;;;;5.95;3.58;;;28.60;37.60;;;;;;4957211;28;20047;-80
2022/04/29 12:22:45;;;;;;;6.20;4.43;;;28.80;37.10;;;;;;4974523;28;20035;-80
2022/04/29 12:25:34;;;;;;;11.60;7.32;;;29.00;36.90;;;;;;4957242;28;20153;-83
2022/04/29 12:28:13;;;;;;;9.85;6.38;;;28.80;37.20;;;;;;4974431;28;20105;-83
2022/04/29 12:36:13;;;;;;;10.70;5.97;;;28.40;36.80;;;;;;4974194;28;20237;-80
2022/04/29 12:38:41;;;;;;;13.40;10.20;;;28.40;37.40;;;;;;4974745;28;20461;-82
2022/04/29 12:41:25;;;;;;;11.52;8.07;;;28.70;38.20;;;;;;4957687;28;20469;-83
2022/04/29 12:43:52;;;;;;;6.40;3.72;;;29.00;36.60;;;;;;4957251;28;20037;-78
2022/04/29 12:46:22;;;;;;;5.90;3.38;;;28.50;34.00;;;;;;4957179;28;20126;-77
2022/04/29 12:48:52;;;;;;;5.78;3.50;;;26.70;36.20;;;;;;4956715;28;20035;-82
2022/04/29 12:51:24;;;;;;;5.68;3.55;;;26.30;37.60;;;;;;4957114;28;20035;-79
2022/04/29 12:53:50;;;;;;;4.60;3.28;;;26.40;36.10;;;;;;4956515;28;20119;-78
2022/04/29 12:56:27;;;;;;;5.43;3.75;;;25.90;37.10;;;;;;4974188;28;20027;-78
2022/04/29 12:58:53;;;;;;;4.95;3.30;;;26.30;38.00;;;;;;4956732;28;20030;-78
2022/04/29 13:01:19;;;;;;;5.00;3.40;;;27.10;38.60;;;;;;4974131;28;20034;-81
2022/04/29 13:03:52;;;;;;;5.53;3.17;;;27.70;36.90;;;;;;4974103;28;20033;-78
2022/04/29 13:06:20;;;;;;;5.63;3.67;;;27.80;35.60;;;;;;4956643;28;20058;-77
2022/04/29 13:08:48;;;;;;;4.97;3.60;;;27.60;35.80;;;;;;4973983;28;20015;-78
2022/04/29 13:11:16;;;;;;;6.38;3.63;;;27.80;36.50;;;;;;4974620;28;20038;-83
2022/04/29 13:13:42;;;;;;;4.88;3.30;;;28.10;36.90;;;;;;4957090;28;20035;-79
2022/04/29 13:16:08;;;;;;;5.20;3.53;;;27.90;36.40;;;;;;4956879;28;20031;-80
2022/04/29 13:18:34;;;;;;;6.53;4.18;;;28.00;36.70;;;;;;4973717;28;20473;-80
2022/04/29 13:21:00;;;;;;;4.97;3.30;;;28.00;38.50;;;;;;4973981;28;20077;-78
2022/04/29 13:23:27;;;;;;;6.18;3.65;;;28.30;36.50;;;;;;4956548;28;20114;-80
2022/04/29 13:25:55;;;;;;;6.30;3.55;;;28.50;36.90;;;;;;4957032;28;20112;-85